sensor_id;sensor_type;location;lat;lon;timestamp;pressure;altitude;pressure_sealevel;temperature;humidity
17615;BME280;8926;49.720;6.576;2023-04-04T00:00:44;100769.09;;;4.53;51.12
17615;BME280;8926;49.720;6.576;2023-04-04T00:03:10;100770.81;;;4.53;51.07
17615;BME280;8926;49.720;6.576;2023-04-04T00:05:35;100769.97;;;4.52;50.84
17615;BME280;8926;49.720;6.576;2023-04-04T00:08:01;100768.31;;;4.48;50.78
17615;BME280;8926;49.720;6.576;2023-04-04T00:10:27;100764.94;;;4.43;51.14
17615;BME280;8926;49.720;6.576;2023-04-04T00:12:52;100758.91;;;4.42;50.84
17615;BME280;8926;49.720;6.576;2023-04-04T00:15:17;100756.28;;;4.44;51.17
17615;BME280;8926;49.720;6.576;2023-04-04T00:17:43;100762.34;;;4.43;51.33
17615;BME280;8926;49.720;6.576;2023-04-04T00:20:08;100746.09;;;4.35;51.15
17615;BME280;8926;49.720;6.576;2023-04-04T00:22:34;100745.34;;;4.28;51.32
17615;BME280;8926;49.720;6.576;2023-04-04T00:24:59;100750.50;;;4.30;52.12
17615;BME280;8926;49.720;6.576;2023-04-04T00:27:25;100751.31;;;4.32;51.66
17615;BME280;8926;49.720;6.576;2023-04-04T00:29:50;100740.13;;;4.31;51.31
17615;BME280;8926;49.720;6.576;2023-04-04T00:32:16;100737.69;;;4.21;51.35
17615;BME280;8926;49.720;6.576;2023-04-04T00:34:41;100740.28;;;4.19;52.55
17615;BME280;8926;49.720;6.576;2023-04-04T00:37:07;100734.19;;;4.25;51.47
17615;BME280;8926;49.720;6.576;2023-04-04T00:39:36;100734.34;;;4.16;52.30
17615;BME280;8926;49.720;6.576;2023-04-04T00:42:01;100739.56;;;4.13;51.92
17615;BME280;8926;49.720;6.576;2023-04-04T00:44:26;100734.38;;;4.13;51.92
17615;BME280;8926;49.720;6.576;2023-04-04T00:46:52;100736.16;;;4.07;51.97
17615;BME280;8926;49.720;6.576;2023-04-04T00:49:17;100732.72;;;4.07;51.99
17615;BME280;8926;49.720;6.576;2023-04-04T00:51:43;100727.53;;;4.08;51.68
17615;BME280;8926;49.720;6.576;2023-04-04T00:54:08;100737.88;;;4.08;52.41
17615;BME280;8926;49.720;6.576;2023-04-04T00:56:36;100732.75;;;4.05;52.76
17615;BME280;8926;49.720;6.576;2023-04-04T00:59:02;100731.00;;;4.07;51.94
17615;BME280;8926;49.720;6.576;2023-04-04T01:01:27;100719.00;;;4.03;52.71
17615;BME280;8926;49.720;6.576;2023-04-04T01:03:55;100720.75;;;4.01;51.90
17615;BME280;8926;49.720;6.576;2023-04-04T01:06:21;100728.63;;;3.92;52.63
17615;BME280;8926;49.720;6.576;2023-04-04T01:08:47;100727.81;;;3.89;53.05
17615;BME280;8926;49.720;6.576;2023-04-04T01:11:13;100731.22;;;3.91;52.40
17615;BME280;8926;49.720;6.576;2023-04-04T01:13:39;100728.69;;;3.88;52.47
17615;BME280;8926;49.720;6.576;2023-04-04T01:16:05;100729.56;;;3.88;52.17
17615;BME280;8926;49.720;6.576;2023-04-04T01:18:31;100732.19;;;3.85;52.03
17615;BME280;8926;49.720;6.576;2023-04-04T01:21:10;100722.75;;;3.81;53.62
17615;BME280;8926;49.720;6.576;2023-04-04T01:23:55;100736.56;;;3.80;52.62
17615;BME280;8926;49.720;6.576;2023-04-04T01:26:22;100728.75;;;3.83;52.59
17615;BME280;8926;49.720;6.576;2023-04-04T01:28:48;100722.75;;;3.81;52.60
17615;BME280;8926;49.720;6.576;2023-04-04T01:31:20;100727.06;;;3.81;53.38
17615;BME280;8926;49.720;6.576;2023-04-04T01:34:08;100722.78;;;3.78;53.94
17615;BME280;8926;49.720;6.576;2023-04-04T01:37:06;100723.69;;;3.75;53.06
17615;BME280;8926;49.720;6.576;2023-04-04T01:39:42;100720.22;;;3.78;52.97
17615;BME280;8926;49.720;6.576;2023-04-04T01:42:11;100729.78;;;3.70;53.58
17615;BME280;8926;49.720;6.576;2023-04-04T01:44:37;100721.28;;;3.62;54.09
17615;BME280;8926;49.720;6.576;2023-04-04T01:47:05;100720.50;;;3.57;54.70
17615;BME280;8926;49.720;6.576;2023-04-04T01:49:31;100718.78;;;3.56;53.55
17615;BME280;8926;49.720;6.576;2023-04-04T01:51:56;100721.41;;;3.53;54.12
17615;BME280;8926;49.720;6.576;2023-04-04T01:54:21;100716.31;;;3.47;53.94
17615;BME280;8926;49.720;6.576;2023-04-04T01:56:48;100723.19;;;3.48;54.94
17615;BME280;8926;49.720;6.576;2023-04-04T01:59:13;100721.53;;;3.40;54.51
17615;BME280;8926;49.720;6.576;2023-04-04T02:01:38;100718.06;;;3.41;55.04
17615;BME280;8926;49.720;6.576;2023-04-04T02:04:04;100721.50;;;3.42;54.64
17615;BME280;8926;49.720;6.576;2023-04-04T02:06:29;100718.03;;;3.45;54.58
17615;BME280;8926;49.720;6.576;2023-04-04T02:08:55;100722.47;;;3.36;54.32
17615;BME280;8926;49.720;6.576;2023-04-04T02:11:21;100728.53;;;3.32;54.80
17615;BME280;8926;49.720;6.576;2023-04-04T02:13:49;100726.75;;;3.37;54.47
17615;BME280;8926;49.720;6.576;2023-04-04T02:16:15;100730.22;;;3.36;54.31
17615;BME280;8926;49.720;6.576;2023-04-04T02:18:41;100726.88;;;3.25;54.96
17615;BME280;8926;49.720;6.576;2023-04-04T02:21:06;100732.06;;;3.22;55.51
17615;BME280;8926;49.720;6.576;2023-04-04T02:23:32;100729.50;;;3.22;55.11
17615;BME280;8926;49.720;6.576;2023-04-04T02:25:57;100730.53;;;3.09;54.90
17615;BME280;8926;49.720;6.576;2023-04-04T02:28:22;100726.25;;;3.06;54.93
17615;BME280;8926;49.720;6.576;2023-04-04T02:30:48;100737.41;;;3.07;55.10
17615;BME280;8926;49.720;6.576;2023-04-04T02:33:13;100732.25;;;3.07;55.02
17615;BME280;8926;49.720;6.576;2023-04-04T02:35:38;100724.50;;;3.09;55.12
17615;BME280;8926;49.720;6.576;2023-04-04T02:38:04;100725.34;;;3.09;55.11
17615;BME280;8926;49.720;6.576;2023-04-04T02:40:29;100733.13;;;3.04;55.39
17615;BME280;8926;49.720;6.576;2023-04-04T02:42:54;100730.53;;;3.06;55.28
17615;BME280;8926;49.720;6.576;2023-04-04T02:45:20;100726.25;;;3.03;54.43
17615;BME280;8926;49.720;6.576;2023-04-04T02:47:50;100724.56;;;3.02;55.89
17615;BME280;8926;49.720;6.576;2023-04-04T02:50:15;100726.28;;;3.00;55.78
17615;BME280;8926;49.720;6.576;2023-04-04T02:52:41;100732.34;;;2.98;55.29
17615;BME280;8926;49.720;6.576;2023-04-04T02:55:07;100730.66;;;2.94;55.82
17615;BME280;8926;49.720;6.576;2023-04-04T02:57:33;100724.66;;;2.92;55.80
17615;BME280;8926;49.720;6.576;2023-04-04T02:59:58;100728.91;;;2.97;55.42
17615;BME280;8926;49.720;6.576;2023-04-04T03:02:24;100726.34;;;2.96;55.41
17615;BME280;8926;49.720;6.576;2023-04-04T03:04:50;100727.31;;;2.86;56.04
17615;BME280;8926;49.720;6.576;2023-04-04T03:07:15;100725.59;;;2.85;55.63
17615;BME280;8926;49.720;6.576;2023-04-04T03:09:41;100726.56;;;2.73;55.69
17615;BME280;8926;49.720;6.576;2023-04-04T03:12:09;100711.94;;;2.73;56.08
17615;BME280;8926;49.720;6.576;2023-04-04T03:14:34;100720.59;;;2.66;56.22
17615;BME280;8926;49.720;6.576;2023-04-04T03:17:00;100717.13;;;2.67;55.95
17615;BME280;8926;49.720;6.576;2023-04-04T03:19:25;100723.22;;;2.60;55.96
17615;BME280;8926;49.720;6.576;2023-04-04T03:21:50;100717.22;;;2.60;56.65
17615;BME280;8926;49.720;6.576;2023-04-04T03:24:15;100717.22;;;2.60;56.32
17615;BME280;8926;49.720;6.576;2023-04-04T03:26:41;100713.75;;;2.62;56.53
17615;BME280;8926;49.720;6.576;2023-04-04T03:29:06;100712.88;;;2.65;55.89
17615;BME280;8926;49.720;6.576;2023-04-04T03:31:31;100715.47;;;2.60;56.60
17615;BME280;8926;49.720;6.576;2023-04-04T03:33:57;100723.25;;;2.59;56.53
17615;BME280;8926;49.720;6.576;2023-04-04T03:36:25;100713.81;;;2.59;56.59
17615;BME280;8926;49.720;6.576;2023-04-04T03:38:50;100717.28;;;2.52;56.43
17615;BME280;8926;49.720;6.576;2023-04-04T03:41:15;100708.69;;;2.53;56.41
17615;BME280;8926;49.720;6.576;2023-04-04T03:43:40;100706.06;;;2.58;56.66
17615;BME280;8926;49.720;6.576;2023-04-04T03:46:06;100711.25;;;2.53;56.37
17615;BME280;8926;49.720;6.576;2023-04-04T03:48:32;100713.88;;;2.50;56.58
17615;BME280;8926;49.720;6.576;2023-04-04T03:50:58;100701.88;;;2.45;56.33
17615;BME280;8926;49.720;6.576;2023-04-04T03:53:24;100708.72;;;2.47;56.86
17615;BME280;8926;49.720;6.576;2023-04-04T03:55:50;100707.06;;;2.40;57.47
17615;BME280;8926;49.720;6.576;2023-04-04T03:58:16;100709.66;;;2.37;57.45
17615;BME280;8926;49.720;6.576;2023-04-04T04:00:41;100707.94;;;2.39;57.03
17615;BME280;8926;49.720;6.576;2023-04-04T04:03:06;100712.25;;;2.37;57.25
17615;BME280;8926;49.720;6.576;2023-04-04T04:05:32;100717.41;;;2.37;57.49
17615;BME280;8926;49.720;6.576;2023-04-04T04:07:57;100719.09;;;2.38;57.16
17615;BME280;8926;49.720;6.576;2023-04-04T04:10:22;100717.41;;;2.37;57.72
17615;BME280;8926;49.720;6.576;2023-04-04T04:12:48;100717.41;;;2.35;57.73
17615;BME280;8926;49.720;6.576;2023-04-04T04:15:13;100710.59;;;2.30;58.18
17615;BME280;8926;49.720;6.576;2023-04-04T04:17:39;100708.94;;;2.23;58.05
17615;BME280;8926;49.720;6.576;2023-04-04T04:20:06;100714.94;;;2.22;58.84
17615;BME280;8926;49.720;6.576;2023-04-04T04:22:31;100706.34;;;2.21;58.25
17615;BME280;8926;49.720;6.576;2023-04-04T04:24:56;100699.47;;;2.22;58.05
17615;BME280;8926;49.720;6.576;2023-04-04T04:27:22;100706.34;;;2.24;57.94
17615;BME280;8926;49.720;6.576;2023-04-04T04:29:47;100702.03;;;2.25;58.03
17615;BME280;8926;49.720;6.576;2023-04-04T04:32:16;100703.75;;;2.26;58.30
17615;BME280;8926;49.720;6.576;2023-04-04T04:34:42;100708.91;;;2.26;59.15
17615;BME280;8926;49.720;6.576;2023-04-04T04:37:07;100703.72;;;2.29;58.39
17615;BME280;8926;49.720;6.576;2023-04-04T04:39:32;100712.34;;;2.25;59.06
17615;BME280;8926;49.720;6.576;2023-04-04T04:41:58;100703.78;;;2.20;59.10
17615;BME280;8926;49.720;6.576;2023-04-04T04:44:23;100708.13;;;2.15;59.84
17615;BME280;8926;49.720;6.576;2023-04-04T04:46:48;100709.00;;;2.11;59.84
17615;BME280;8926;49.720;6.576;2023-04-04T04:49:14;100710.72;;;2.09;59.50
17615;BME280;8926;49.720;6.576;2023-04-04T04:51:39;100712.50;;;2.07;59.79
17615;BME280;8926;49.720;6.576;2023-04-04T04:54:06;100720.16;;;2.14;59.99
17615;BME280;8926;49.720;6.576;2023-04-04T04:56:32;100713.25;;;2.16;60.10
17615;BME280;8926;49.720;6.576;2023-04-04T04:58:57;100717.53;;;2.19;60.15
17615;BME280;8926;49.720;6.576;2023-04-04T05:01:22;100710.66;;;2.21;59.84
17615;BME280;8926;49.720;6.576;2023-04-04T05:03:48;100706.38;;;2.18;59.16
17615;BME280;8926;49.720;6.576;2023-04-04T05:06:13;100712.44;;;2.10;59.96
17615;BME280;8926;49.720;6.576;2023-04-04T05:08:38;100711.63;;;2.08;59.95
17615;BME280;8926;49.720;6.576;2023-04-04T05:11:03;100713.38;;;2.02;60.04
17615;BME280;8926;49.720;6.576;2023-04-04T05:13:29;100715.09;;;2.03;60.12
17615;BME280;8926;49.720;6.576;2023-04-04T05:15:54;100716.78;;;2.08;60.35
17615;BME280;8926;49.720;6.576;2023-04-04T05:18:20;100711.53;;;2.15;59.81
17615;BME280;8926;49.720;6.576;2023-04-04T05:20:53;100704.63;;;2.23;59.12
17615;BME280;8926;49.720;6.576;2023-04-04T05:23:18;100715.84;;;2.15;59.72
17615;BME280;8926;49.720;6.576;2023-04-04T05:25:43;100711.50;;;2.21;59.57
17615;BME280;8926;49.720;6.576;2023-04-04T05:28:08;100713.19;;;2.27;59.18
17615;BME280;8926;49.720;6.576;2023-04-04T05:30:34;100714.91;;;2.29;58.98
17615;BME280;8926;49.720;6.576;2023-04-04T05:32:59;100715.69;;;2.36;58.89
17615;BME280;8926;49.720;6.576;2023-04-04T05:35:24;100715.66;;;2.39;58.56
17615;BME280;8926;49.720;6.576;2023-04-04T05:37:50;100722.56;;;2.37;58.64
17615;BME280;8926;49.720;6.576;2023-04-04T05:40:15;100717.38;;;2.40;58.89
17615;BME280;8926;49.720;6.576;2023-04-04T05:42:40;100724.16;;;2.53;58.85
17615;BME280;8926;49.720;6.576;2023-04-04T05:45:07;100718.75;;;2.81;57.92
17615;BME280;8926;49.720;6.576;2023-04-04T05:47:32;100723.44;;;3.26;56.93
17615;BME280;8926;49.720;6.576;2023-04-04T05:49:57;100711.13;;;3.47;56.21
17615;BME280;8926;49.720;6.576;2023-04-04T05:52:23;100714.47;;;3.55;56.29
17615;BME280;8926;49.720;6.576;2023-04-04T05:54:48;100714.25;;;3.73;56.60
17615;BME280;8926;49.720;6.576;2023-04-04T05:57:13;100715.47;;;4.07;56.50
17615;BME280;8926;49.720;6.576;2023-04-04T05:59:39;100718.03;;;4.64;54.10
17615;BME280;8926;49.720;6.576;2023-04-04T06:02:04;100713.78;;;5.08;53.90
17615;BME280;8926;49.720;6.576;2023-04-04T06:04:31;100711.34;;;5.00;53.68
17615;BME280;8926;49.720;6.576;2023-04-04T06:06:57;100715.84;;;5.77;53.04
17615;BME280;8926;49.720;6.576;2023-04-04T06:09:22;100714.41;;;6.41;52.50
17615;BME280;8926;49.720;6.576;2023-04-04T06:11:47;100715.03;;;7.17;50.73
17615;BME280;8926;49.720;6.576;2023-04-04T06:14:13;100709.41;;;7.91;48.33
17615;BME280;8926;49.720;6.576;2023-04-04T06:16:38;100709.00;;;7.77;48.69
17615;BME280;8926;49.720;6.576;2023-04-04T06:19:03;100708.53;;;8.48;48.32
17615;BME280;8926;49.720;6.576;2023-04-04T06:21:28;100714.69;;;9.22;45.23
17615;BME280;8926;49.720;6.576;2023-04-04T06:23:54;100700.81;;;9.90;46.01
17615;BME280;8926;49.720;6.576;2023-04-04T06:26:19;100708.03;;;10.06;40.39
17615;BME280;8926;49.720;6.576;2023-04-04T06:28:49;100706.38;;;11.29;42.40
17615;BME280;8926;49.720;6.576;2023-04-04T06:31:15;100698.75;;;12.37;38.60
17615;BME280;8926;49.720;6.576;2023-04-04T06:33:41;100707.66;;;12.15;38.72
17615;BME280;8926;49.720;6.576;2023-04-04T06:36:06;100694.53;;;13.20;38.23
17615;BME280;8926;49.720;6.576;2023-04-04T06:38:31;100686.81;;;13.82;36.57
17615;BME280;8926;49.720;6.576;2023-04-04T06:40:57;100692.78;;;13.52;36.34
17615;BME280;8926;49.720;6.576;2023-04-04T06:43:22;100690.19;;;13.84;35.95
17615;BME280;8926;49.720;6.576;2023-04-04T06:45:48;100700.19;;;13.62;34.57
17615;BME280;8926;49.720;6.576;2023-04-04T06:48:13;100700.00;;;12.64;35.52
17615;BME280;8926;49.720;6.576;2023-04-04T06:50:38;100704.81;;;11.64;36.46
17615;BME280;8926;49.720;6.576;2023-04-04T06:53:04;100722.56;;;10.77;36.98
17615;BME280;8926;49.720;6.576;2023-04-04T06:55:32;100714.88;;;9.87;38.94
17615;BME280;8926;49.720;6.576;2023-04-04T06:57:57;100712.53;;;9.79;39.37
17615;BME280;8926;49.720;6.576;2023-04-04T07:00:23;100712.81;;;9.72;38.11
17615;BME280;8926;49.720;6.576;2023-04-04T07:02:48;100713.91;;;9.43;39.24
17615;BME280;8926;49.720;6.576;2023-04-04T07:05:14;100716.81;;;9.35;39.95
17615;BME280;8926;49.720;6.576;2023-04-04T07:07:42;100721.53;;;9.24;40.49
17615;BME280;8926;49.720;6.576;2023-04-04T07:10:08;100705.22;;;9.42;40.79
17615;BME280;8926;49.720;6.576;2023-04-04T07:12:33;100720.94;;;9.64;39.24
17615;BME280;8926;49.720;6.576;2023-04-04T07:14:58;100717.41;;;9.65;39.56
17615;BME280;8926;49.720;6.576;2023-04-04T07:17:24;100712.94;;;9.69;39.17
17615;BME280;8926;49.720;6.576;2023-04-04T07:19:49;100705.41;;;9.61;39.72
17615;BME280;8926;49.720;6.576;2023-04-04T07:22:15;100708.13;;;9.35;39.34
17615;BME280;8926;49.720;6.576;2023-04-04T07:24:40;100708.38;;;9.04;39.23
17615;BME280;8926;49.720;6.576;2023-04-04T07:27:06;100709.31;;;9.01;39.14
17615;BME280;8926;49.720;6.576;2023-04-04T07:29:32;100716.09;;;9.07;39.04
17615;BME280;8926;49.720;6.576;2023-04-04T07:31:57;100709.22;;;9.04;40.07
17615;BME280;8926;49.720;6.576;2023-04-04T07:34:22;100707.13;;;9.14;40.29
17615;BME280;8926;49.720;6.576;2023-04-04T07:36:49;100707.38;;;9.31;39.53
17615;BME280;8926;49.720;6.576;2023-04-04T07:39:15;100702.41;;;9.48;39.84
17615;BME280;8926;49.720;6.576;2023-04-04T07:41:41;100709.09;;;9.32;38.55
17615;BME280;8926;49.720;6.576;2023-04-04T07:44:06;100711.66;;;9.34;39.74
17615;BME280;8926;49.720;6.576;2023-04-04T07:46:31;100711.72;;;9.56;39.31
17615;BME280;8926;49.720;6.576;2023-04-04T07:48:57;100709.00;;;9.59;39.36
17615;BME280;8926;49.720;6.576;2023-04-04T07:51:22;100711.72;;;9.56;38.99
17615;BME280;8926;49.720;6.576;2023-04-04T07:53:54;100710.91;;;9.77;38.70
17615;BME280;8926;49.720;6.576;2023-04-04T07:56:19;100717.69;;;9.81;38.73
17615;BME280;8926;49.720;6.576;2023-04-04T07:58:45;100716.13;;;9.77;38.87
17615;BME280;8926;49.720;6.576;2023-04-04T08:01:11;100722.22;;;9.99;38.16
17615;BME280;8926;49.720;6.576;2023-04-04T08:03:36;100709.22;;;9.98;38.91
17615;BME280;8926;49.720;6.576;2023-04-04T08:06:01;100709.09;;;10.01;37.81
17615;BME280;8926;49.720;6.576;2023-04-04T08:08:27;100708.25;;;10.00;38.75
17615;BME280;8926;49.720;6.576;2023-04-04T08:10:53;100705.94;;;10.14;38.96
17615;BME280;8926;49.720;6.576;2023-04-04T08:13:19;100701.09;;;10.49;38.21
17615;BME280;8926;49.720;6.576;2023-04-04T08:15:44;100699.75;;;10.61;37.43
17615;BME280;8926;49.720;6.576;2023-04-04T08:18:09;100704.78;;;10.65;38.05
17615;BME280;8926;49.720;6.576;2023-04-04T08:20:35;100703.09;;;10.64;37.17
17615;BME280;8926;49.720;6.576;2023-04-04T08:23:00;100706.19;;;10.52;37.76
17615;BME280;8926;49.720;6.576;2023-04-04T08:25:26;100713.22;;;10.30;38.01
17615;BME280;8926;49.720;6.576;2023-04-04T08:27:51;100717.16;;;10.16;38.32
17615;BME280;8926;49.720;6.576;2023-04-04T08:30:17;100714.91;;;10.31;37.71
17615;BME280;8926;49.720;6.576;2023-04-04T08:32:43;100716.75;;;10.49;37.89
17615;BME280;8926;49.720;6.576;2023-04-04T08:35:10;100719.75;;;10.82;37.02
17615;BME280;8926;49.720;6.576;2023-04-04T08:37:35;100715.69;;;11.36;36.27
17615;BME280;8926;49.720;6.576;2023-04-04T08:40:02;100706.19;;;11.33;35.73
17615;BME280;8926;49.720;6.576;2023-04-04T08:42:29;100715.09;;;11.29;36.05
17615;BME280;8926;49.720;6.576;2023-04-04T08:44:58;100706.50;;;11.07;36.47
17615;BME280;8926;49.720;6.576;2023-04-04T08:47:27;100718.44;;;11.12;37.23
17615;BME280;8926;49.720;6.576;2023-04-04T08:49:55;100705.28;;;11.34;35.87
17615;BME280;8926;49.720;6.576;2023-04-04T08:52:25;100710.59;;;11.70;36.56
17615;BME280;8926;49.720;6.576;2023-04-04T08:54:52;100710.22;;;11.79;35.08
17615;BME280;8926;49.720;6.576;2023-04-04T08:57:18;100702.50;;;11.95;34.84
17615;BME280;8926;49.720;6.576;2023-04-04T08:59:43;100710.41;;;12.12;35.50
17615;BME280;8926;49.720;6.576;2023-04-04T09:04:34;100706.31;;;12.60;34.94
17615;BME280;8926;49.720;6.576;2023-04-04T09:07:00;100707.56;;;12.70;34.65
17615;BME280;8926;49.720;6.576;2023-04-04T09:09:32;100706.75;;;12.51;34.98
17615;BME280;8926;49.720;6.576;2023-04-04T09:12:00;100695.50;;;12.49;34.25
17615;BME280;8926;49.720;6.576;2023-04-04T09:14:25;100697.47;;;12.63;33.65
17615;BME280;8926;49.720;6.576;2023-04-04T09:16:51;100698.31;;;12.63;34.10
17615;BME280;8926;49.720;6.576;2023-04-04T09:19:17;100693.00;;;12.11;34.17
17615;BME280;8926;49.720;6.576;2023-04-04T09:21:46;100696.66;;;11.70;33.96
17615;BME280;8926;49.720;6.576;2023-04-04T09:24:13;100691.09;;;11.59;35.33
17615;BME280;8926;49.720;6.576;2023-04-04T09:26:49;100693.09;;;11.91;35.06
17615;BME280;8926;49.720;6.576;2023-04-04T09:29:18;100695.75;;;12.08;34.45
17615;BME280;8926;49.720;6.576;2023-04-04T09:31:44;100688.25;;;12.19;34.82
17615;BME280;8926;49.720;6.576;2023-04-04T09:34:12;100690.44;;;12.46;34.16
17615;BME280;8926;49.720;6.576;2023-04-04T09:36:39;100681.50;;;12.84;34.45
17615;BME280;8926;49.720;6.576;2023-04-04T09:39:05;100683.50;;;12.62;33.85
17615;BME280;8926;49.720;6.576;2023-04-04T09:41:30;100666.69;;;12.66;33.58
17615;BME280;8926;49.720;6.576;2023-04-04T09:43:56;100678.47;;;12.92;33.95
17615;BME280;8926;49.720;6.576;2023-04-04T09:46:22;100662.09;;;13.21;33.66
17615;BME280;8926;49.720;6.576;2023-04-04T09:48:48;100663.22;;;13.33;33.45
17615;BME280;8926;49.720;6.576;2023-04-04T09:51:18;100663.91;;;13.52;33.60
17615;BME280;8926;49.720;6.576;2023-04-04T09:53:46;100669.84;;;13.40;31.80
17615;BME280;8926;49.720;6.576;2023-04-04T09:56:12;100671.69;;;13.38;32.24
17615;BME280;8926;49.720;6.576;2023-04-04T09:58:38;100665.06;;;13.31;32.83
17615;BME280;8926;49.720;6.576;2023-04-04T10:01:07;100669.84;;;13.40;31.49
17615;BME280;8926;49.720;6.576;2023-04-04T10:03:35;100655.53;;;13.62;32.56
17615;BME280;8926;49.720;6.576;2023-04-04T10:06:05;100661.38;;;13.82;31.46
17615;BME280;8926;49.720;6.576;2023-04-04T10:08:30;100658.06;;;13.79;33.00
17615;BME280;8926;49.720;6.576;2023-04-04T10:11:01;100657.56;;;13.88;32.71
17615;BME280;8926;49.720;6.576;2023-04-04T10:13:31;100654.78;;;13.91;32.69
17615;BME280;8926;49.720;6.576;2023-04-04T10:15:59;100659.53;;;14.00;31.10
17615;BME280;8926;49.720;6.576;2023-04-04T10:18:27;100653.91;;;14.06;32.05
17615;BME280;8926;49.720;6.576;2023-04-04T10:20:54;100638.56;;;14.14;31.00
17615;BME280;8926;49.720;6.576;2023-04-04T10:23:21;100646.94;;;14.21;31.22
17615;BME280;8926;49.720;6.576;2023-04-04T10:25:48;100650.47;;;13.90;31.14
17615;BME280;8926;49.720;6.576;2023-04-04T10:28:14;100646.66;;;13.80;30.86
17615;BME280;8926;49.720;6.576;2023-04-04T10:30:42;100648.69;;;13.59;32.26
17615;BME280;8926;49.720;6.576;2023-04-04T10:33:22;100644.09;;;13.63;32.40
17615;BME280;8926;49.720;6.576;2023-04-04T10:35:52;100640.88;;;13.57;32.06
17615;BME280;8926;49.720;6.576;2023-04-04T10:38:25;100646.47;;;13.83;32.18
17615;BME280;8926;49.720;6.576;2023-04-04T10:40:55;100637.66;;;13.84;31.29
17615;BME280;8926;49.720;6.576;2023-04-04T10:43:24;100643.63;;;13.72;30.99
17615;BME280;8926;49.720;6.576;2023-04-04T10:45:54;100650.53;;;13.57;31.98
17615;BME280;8926;49.720;6.576;2023-04-04T10:48:19;100640.38;;;13.67;32.00
17615;BME280;8926;49.720;6.576;2023-04-04T10:50:45;100647.78;;;13.76;31.74
17615;BME280;8926;49.720;6.576;2023-04-04T10:53:11;100638.84;;;13.78;32.06
17615;BME280;8926;49.720;6.576;2023-04-04T10:55:37;100628.84;;;13.85;32.38
17615;BME280;8926;49.720;6.576;2023-04-04T10:58:05;100636.22;;;13.94;32.21
17615;BME280;8926;49.720;6.576;2023-04-04T11:00:30;100631.41;;;13.71;31.22
17615;BME280;8926;49.720;6.576;2023-04-04T11:03:00;100627.84;;;13.56;32.24
17615;BME280;8926;49.720;6.576;2023-04-04T11:05:39;100621.56;;;13.58;32.10
17615;BME280;8926;49.720;6.576;2023-04-04T11:08:07;100619.56;;;13.64;31.33
17615;BME280;8926;49.720;6.576;2023-04-04T11:10:43;100627.84;;;13.72;31.41
17615;BME280;8926;49.720;6.576;2023-04-04T11:13:16;100632.66;;;13.79;31.69
17615;BME280;8926;49.720;6.576;2023-04-04T11:15:52;100625.47;;;13.67;31.45
17615;BME280;8926;49.720;6.576;2023-04-04T11:18:20;100633.03;;;13.73;30.74
17615;BME280;8926;49.720;6.576;2023-04-04T11:20:47;100628.03;;;13.69;31.24
17615;BME280;8926;49.720;6.576;2023-04-04T11:23:20;100625.84;;;13.77;31.14
17615;BME280;8926;49.720;6.576;2023-04-04T11:28:43;100611.91;;;13.90;31.14
17615;BME280;8926;49.720;6.576;2023-04-04T11:39:28;100612.44;;;13.66;30.63
17615;BME280;8926;49.720;6.576;2023-04-04T11:42:10;100618.13;;;13.74;30.94
17615;BME280;8926;49.720;6.576;2023-04-04T11:47:18;100612.41;;;13.34;31.83
17615;BME280;8926;49.720;6.576;2023-04-04T11:49:44;100618.06;;;13.27;31.66
17615;BME280;8926;49.720;6.576;2023-04-04T11:52:12;100611.97;;;13.26;32.26
17615;BME280;8926;49.720;6.576;2023-04-04T11:54:39;100613.41;;;13.16;32.14
17615;BME280;8926;49.720;6.576;2023-04-04T11:57:06;100601.19;;;12.99;32.10
17615;BME280;8926;49.720;6.576;2023-04-04T11:59:32;100601.84;;;13.03;32.42
17615;BME280;8926;49.720;6.576;2023-04-04T12:01:59;100594.41;;;13.11;32.86
17615;BME280;8926;49.720;6.576;2023-04-04T12:04:25;100589.31;;;13.25;32.82
17615;BME280;8926;49.720;6.576;2023-04-04T12:06:53;100581.09;;;13.31;32.04
17615;BME280;8926;49.720;6.576;2023-04-04T12:09:19;100578.06;;;13.23;32.16
17615;BME280;8926;49.720;6.576;2023-04-04T12:11:48;100582.47;;;13.22;32.39
17615;BME280;8926;49.720;6.576;2023-04-04T12:14:21;100577.47;;;13.01;32.19
17615;BME280;8926;49.720;6.576;2023-04-04T12:16:49;100587.84;;;12.86;32.99
17615;BME280;8926;49.720;6.576;2023-04-04T12:19:16;100579.81;;;12.89;33.05
17615;BME280;8926;49.720;6.576;2023-04-04T12:21:42;100579.59;;;13.10;32.79
17615;BME280;8926;49.720;6.576;2023-04-04T12:24:08;100564.16;;;13.21;33.01
17615;BME280;8926;49.720;6.576;2023-04-04T12:26:36;100561.06;;;13.13;32.61
17615;BME280;8926;49.720;6.576;2023-04-04T12:29:02;100555.13;;;12.94;32.85
17615;BME280;8926;49.720;6.576;2023-04-04T12:31:28;100556.00;;;13.10;32.84
17615;BME280;8926;49.720;6.576;2023-04-04T12:33:54;100555.13;;;12.94;33.03
17615;BME280;8926;49.720;6.576;2023-04-04T12:36:19;100559.88;;;13.03;33.12
17615;BME280;8926;49.720;6.576;2023-04-04T12:39:04;100553.13;;;12.99;33.13
17615;BME280;8926;49.720;6.576;2023-04-04T12:41:32;100548.81;;;12.98;33.85
17615;BME280;8926;49.720;6.576;2023-04-04T12:44:05;100552.28;;;12.98;33.05
17615;BME280;8926;49.720;6.576;2023-04-04T12:46:35;100542.94;;;12.93;33.14
17615;BME280;8926;49.720;6.576;2023-04-04T12:49:09;100543.28;;;12.86;32.97
17615;BME280;8926;49.720;6.576;2023-04-04T12:51:35;100549.50;;;12.68;33.49
17615;BME280;8926;49.720;6.576;2023-04-04T12:54:05;100543.50;;;12.66;33.49
17615;BME280;8926;49.720;6.576;2023-04-04T12:56:31;100541.50;;;12.54;33.54
17615;BME280;8926;49.720;6.576;2023-04-04T12:59:00;100536.78;;;12.61;33.86
17615;BME280;8926;49.720;6.576;2023-04-04T13:01:30;100532.34;;;12.45;33.31
17615;BME280;8926;49.720;6.576;2023-04-04T13:04:00;100523.38;;;12.49;33.71
17615;BME280;8926;49.720;6.576;2023-04-04T13:06:28;100529.66;;;12.47;33.03
17615;BME280;8926;49.720;6.576;2023-04-04T13:08:54;100524.50;;;12.28;33.83
17615;BME280;8926;49.720;6.576;2023-04-04T13:11:20;100525.38;;;12.11;33.71
17615;BME280;8926;49.720;6.576;2023-04-04T13:13:46;100517.66;;;12.08;34.11
17615;BME280;8926;49.720;6.576;2023-04-04T13:16:27;100511.97;;;12.17;33.85
17615;BME280;8926;49.720;6.576;2023-04-04T13:18:53;100519.41;;;12.25;33.71
17615;BME280;8926;49.720;6.576;2023-04-04T13:21:18;100502.72;;;12.10;33.79